createdAt,value
2023-03-14T00:03:09.537Z,101511.25
2023-03-14T00:08:13.570Z,101508.75
2023-03-14T00:13:10.618Z,101516.56
2023-03-14T00:18:07.608Z,101504.09
2023-03-14T00:23:04.333Z,101495.03
2023-03-14T00:28:03.938Z,101484.66
2023-03-14T00:33:01.665Z,101478.44
2023-03-14T00:38:00.917Z,101467.34
2023-03-14T00:43:00.715Z,101461.50
2023-03-14T00:48:08.002Z,101449.28
2023-03-14T00:53:13.167Z,101444.03
2023-03-14T00:58:10.542Z,101445.50
2023-03-14T01:03:10.148Z,101436.63
2023-03-14T01:08:08.741Z,101422.56
2023-03-14T01:13:08.295Z,101410.16
2023-03-14T01:18:14.239Z,101416.06
2023-03-14T01:23:14.033Z,101415.44
2023-03-14T01:28:10.998Z,101417.25
2023-03-14T01:33:13.703Z,101416.47
2023-03-14T01:38:18.463Z,101412.22
2023-03-14T01:43:19.096Z,101418.78
2023-03-14T01:48:18.413Z,101419.66
2023-03-14T01:53:16.017Z,101406.94
2023-03-14T01:58:18.730Z,101398.72
2023-03-14T02:03:17.698Z,101407.31
2023-03-14T02:08:17.689Z,101402.25
2023-03-14T02:13:22.841Z,101407.50
2023-03-14T02:18:48.566Z,101414.44
2023-03-14T02:24:09.849Z,101411.97
2023-03-14T02:29:13.924Z,101410.38
2023-03-14T02:34:15.050Z,101415.84
2023-03-14T02:39:15.210Z,101419.44
2023-03-14T02:44:15.620Z,101420.38
2023-03-14T02:49:14.843Z,101430.63
2023-03-14T02:54:16.205Z,101420.09
2023-03-14T02:59:13.777Z,101424.03
2023-03-14T03:04:34.493Z,101418.09
2023-03-14T03:09:33.821Z,101405.41
2023-03-14T03:14:30.921Z,101406.47
2023-03-14T03:19:32.592Z,101398.38
2023-03-14T03:24:31.063Z,101410.59
2023-03-14T03:29:27.894Z,101410.63
2023-03-14T03:34:25.753Z,101406.28
2023-03-14T03:39:26.802Z,101388.03
2023-03-14T03:44:28.137Z,101375.50
2023-03-14T03:49:25.102Z,101369.22
2023-03-14T03:54:23.458Z,101372.13
2023-03-14T03:59:20.379Z,101371.31
2023-03-14T04:04:21.905Z,101351.25
2023-03-14T04:09:21.223Z,101339.81
2023-03-14T04:14:39.499Z,101335.28
2023-03-14T04:19:45.366Z,101331.38
2023-03-14T04:24:45.017Z,101326.09
2023-03-14T04:29:41.947Z,101298.44
2023-03-14T04:34:40.971Z,101312.75
2023-03-14T04:39:40.246Z,101312.41
2023-03-14T04:44:59.283Z,101292.50
2023-03-14T04:49:58.463Z,101306.06
2023-03-14T04:54:56.966Z,101319.38
2023-03-14T04:59:56.222Z,101322.25
2023-03-14T05:05:13.774Z,101343.59
2023-03-14T05:10:23.895Z,101346.41
2023-03-14T05:15:39.135Z,101358.34
2023-03-14T05:20:54.499Z,101359.72
2023-03-14T05:26:01.062Z,101349.09
2023-03-14T05:31:20.267Z,101336.75
2023-03-14T05:36:24.278Z,101341.78
2023-03-14T05:41:45.394Z,101328.72
2023-03-14T05:47:11.388Z,101331.41
2023-03-14T05:52:23.054Z,101307.91
2023-03-14T05:57:51.095Z,101318.19
2023-03-14T06:03:07.591Z,101321.50
2023-03-14T06:08:10.720Z,101315.63
2023-03-14T06:13:13.810Z,101311.91
2023-03-14T06:18:10.866Z,101302.50
2023-03-14T06:23:08.256Z,101322.34
2023-03-14T06:28:10.754Z,101300.28
2023-03-14T06:33:20.557Z,101312.88
2023-03-14T06:38:22.182Z,101320.03
2023-03-14T06:43:27.280Z,101325.84
2023-03-14T06:48:27.733Z,101333.72
2023-03-14T06:53:30.695Z,101332.22
2023-03-14T06:58:33.439Z,101324.13
2023-03-14T07:03:35.318Z,101310.06
2023-03-14T07:08:35.670Z,101299.97
2023-03-14T07:13:34.368Z,101295.38
2023-03-14T07:18:36.758Z,101289.16
2023-03-14T07:23:43.965Z,101282.81
2023-03-14T07:28:43.121Z,101279.66
2023-03-14T07:34:06.283Z,101281.06
2023-03-14T07:39:25.352Z,101282.81
2023-03-14T07:44:34.549Z,101283.03
2023-03-14T07:49:31.465Z,101276.28
2023-03-14T07:54:43.894Z,101271.78
2023-03-14T07:59:49.931Z,101271.81
2023-03-14T08:04:48.490Z,101268.84
2023-03-14T08:09:45.304Z,101257.47
2023-03-14T08:14:47.612Z,101262.31
2023-03-14T08:19:55.535Z,101233.72
2023-03-14T08:25:01.594Z,101246.47
2023-03-14T08:30:14.911Z,101243.28
2023-03-14T08:35:17.198Z,101238.03
2023-03-14T08:40:33.008Z,101240.94
2023-03-14T08:45:50.095Z,101228.22
2023-03-14T08:50:56.147Z,101215.78
2023-03-14T08:55:55.697Z,101202.84
2023-03-14T09:00:57.607Z,101193.63
2023-03-14T09:06:09.063Z,101186.94
2023-03-14T09:11:18.751Z,101154.75
2023-03-14T09:16:27.779Z,101153.94
2023-03-14T09:21:34.531Z,101148.72
2023-03-14T09:26:32.809Z,101136.84
2023-03-14T09:31:58.986Z,101130.09
2023-03-14T09:37:14.508Z,101123.47
2023-03-14T09:42:16.646Z,101119.41
2023-03-14T09:47:18.000Z,101101.28
2023-03-14T09:52:44.557Z,101100.34
2023-03-14T09:57:50.888Z,101091.53
2023-03-14T10:02:52.293Z,101074.81
2023-03-14T10:08:02.374Z,101066.00
2023-03-14T10:13:11.468Z,101055.75
2023-03-14T10:18:16.270Z,101038.56
2023-03-14T10:23:42.832Z,101040.78
2023-03-14T10:28:49.355Z,101028.94
2023-03-14T10:34:03.584Z,101023.56
2023-03-14T10:39:22.660Z,101006.84
2023-03-14T10:44:35.194Z,100986.84
2023-03-14T10:49:50.389Z,100984.13
2023-03-14T10:55:05.270Z,100961.59
2023-03-14T11:00:13.345Z,100946.47
2023-03-14T11:05:46.383Z,100937.66
2023-03-14T11:10:54.826Z,100921.09
2023-03-14T11:16:13.516Z,100908.88
2023-03-14T11:21:36.093Z,100883.97
2023-03-14T11:26:38.362Z,100868.75
2023-03-14T11:31:51.722Z,100861.28
2023-03-14T11:36:56.947Z,100845.63
2023-03-14T11:42:00.749Z,100826.22
2023-03-14T11:47:13.561Z,100803.75
2023-03-14T11:52:20.353Z,100793.19
2023-03-14T11:57:24.933Z,100764.84
2023-03-14T12:02:29.721Z,100764.91
2023-03-14T12:07:32.590Z,100755.25
2023-03-14T12:12:42.336Z,100748.94
2023-03-14T12:17:53.481Z,100734.72
2023-03-14T12:22:54.760Z,100727.13
2023-03-14T12:28:15.720Z,100714.25
2023-03-14T12:33:29.675Z,100708.97
2023-03-14T12:38:38.159Z,100706.31
2023-03-14T12:43:40.429Z,100699.13
2023-03-14T12:49:01.362Z,100682.88
2023-03-14T12:54:27.910Z,100683.84
2023-03-14T12:59:36.771Z,100660.50
2023-03-14T13:04:41.333Z,100649.31
2023-03-14T13:10:01.630Z,100636.59
2023-03-14T13:15:10.755Z,100630.00
2023-03-14T13:20:14.228Z,100617.75
2023-03-14T13:25:14.495Z,100609.53
2023-03-14T13:30:19.748Z,100608.13
2023-03-14T13:35:48.029Z,100596.41
2023-03-14T13:40:52.388Z,100586.38
2023-03-14T13:46:02.225Z,100567.97
2023-03-14T13:51:02.915Z,100562.16
2023-03-14T13:56:24.861Z,100558.41
2023-03-14T14:01:51.143Z,100539.38
2023-03-14T14:07:30.485Z,100535.47
2023-03-14T14:12:37.227Z,100526.84
2023-03-14T14:17:38.276Z,100496.94
2023-03-14T14:22:43.952Z,100499.56
2023-03-14T14:28:01.843Z,100500.19
2023-03-14T14:33:15.784Z,100478.16
2023-03-14T14:38:19.044Z,100492.44
2023-03-14T14:43:20.251Z,100480.47
2023-03-14T14:48:21.610Z,100478.56
2023-03-14T14:53:34.851Z,100469.91
2023-03-14T14:58:40.967Z,100458.22
2023-03-14T15:04:17.354Z,100452.16
2023-03-14T15:09:42.644Z,100452.47
2023-03-14T15:14:53.326Z,100431.75
2023-03-14T15:19:50.960Z,100415.47
2023-03-14T15:25:43.451Z,100431.91
2023-03-14T15:30:51.641Z,100431.84
2023-03-14T15:36:03.110Z,100423.47
2023-03-14T15:41:04.089Z,100429.63
2023-03-14T15:46:10.615Z,100406.97
2023-03-14T15:51:12.741Z,100417.06
2023-03-14T15:56:12.546Z,100404.19
2023-03-14T16:01:13.290Z,100408.94
2023-03-14T16:06:13.792Z,100406.56
2023-03-14T16:11:16.904Z,100409.56
2023-03-14T16:16:27.093Z,100402.56
2023-03-14T16:21:38.216Z,100395.16
2023-03-14T16:26:42.757Z,100400.66
2023-03-14T16:32:01.808Z,100403.31
2023-03-14T16:37:12.107Z,100399.72
2023-03-14T16:42:10.526Z,100400.81
2023-03-14T16:47:10.910Z,100401.22
2023-03-14T16:52:12.252Z,100394.94
2023-03-14T16:57:10.930Z,100396.09
2023-03-14T17:02:09.449Z,100384.34
2023-03-14T17:07:10.054Z,100390.69
2023-03-14T17:12:14.340Z,100375.13
2023-03-14T17:17:12.293Z,100374.75
2023-03-14T17:22:22.361Z,100365.00
2023-03-14T17:27:22.409Z,100368.47
2023-03-14T17:32:25.252Z,100364.38
2023-03-14T17:37:26.144Z,100359.38
2023-03-14T17:42:27.617Z,100357.41
2023-03-14T17:47:24.584Z,100352.72
2023-03-14T17:52:24.828Z,100345.47
2023-03-14T17:57:21.829Z,100347.69
2023-03-14T18:02:23.315Z,100336.19
2023-03-14T18:07:20.554Z,100341.78
2023-03-14T18:12:18.534Z,100334.59
2023-03-14T18:17:15.469Z,100325.75
2023-03-14T18:22:14.057Z,100322.75
2023-03-14T18:27:13.382Z,100324.63
2023-03-14T18:32:12.640Z,100336.72
2023-03-14T18:37:14.483Z,100313.22
2023-03-14T18:42:11.591Z,100330.06
2023-03-14T18:47:11.847Z,100316.13
2023-03-14T18:52:11.299Z,100317.59
2023-03-14T18:57:08.105Z,100320.53
2023-03-14T19:02:05.114Z,100311.38
2023-03-14T19:07:03.054Z,100324.25
2023-03-14T19:12:02.268Z,100307.78
2023-03-14T19:17:01.798Z,100307.84
2023-03-14T19:22:00.746Z,100299.56
2023-03-14T19:27:01.901Z,100291.72
2023-03-14T19:32:02.963Z,100285.53
2023-03-14T19:37:10.883Z,100271.22
2023-03-14T19:42:11.323Z,100297.13
2023-03-14T19:47:08.333Z,100297.00
2023-03-14T19:52:05.461Z,100304.31
2023-03-14T19:57:04.886Z,100304.84
2023-03-14T20:02:02.544Z,100304.06
2023-03-14T20:06:59.554Z,100299.97
2023-03-14T20:11:56.398Z,100302.22
2023-03-14T20:17:02.837Z,100302.38
2023-03-14T20:22:04.292Z,100304.78
2023-03-14T20:27:03.674Z,100318.78
2023-03-14T20:32:04.929Z,100321.84
2023-03-14T20:37:05.887Z,100316.13
2023-03-14T20:42:04.789Z,100316.00
2023-03-14T20:47:03.117Z,100308.06
2023-03-14T20:51:59.934Z,100300.28
2023-03-14T20:56:57.565Z,100299.75
2023-03-14T21:07:19.648Z,100280.50
2023-03-14T21:12:17.250Z,100283.03
2023-03-14T21:17:17.068Z,100288.94
2023-03-14T21:22:18.057Z,100286.63
2023-03-14T21:27:16.710Z,100274.97
2023-03-14T21:32:16.946Z,100261.81
2023-03-14T21:37:15.304Z,100246.56
2023-03-14T21:42:13.806Z,100244.66
2023-03-14T21:47:10.801Z,100240.41
2023-03-14T21:52:10.424Z,100244.22
2023-03-14T21:57:08.272Z,100226.09
2023-03-14T22:02:06.694Z,100216.94
2023-03-14T22:07:03.637Z,100213.38
2023-03-14T22:12:01.618Z,100201.06
2023-03-14T22:16:59.330Z,100211.66
2023-03-14T22:22:00.587Z,100215.31
2023-03-14T22:27:01.006Z,100206.50
2023-03-14T22:32:01.542Z,100184.84
2023-03-14T22:37:00.237Z,100207.53
2023-03-14T22:42:00.474Z,100203.63
2023-03-14T22:46:57.435Z,100200.31
2023-03-14T22:51:55.007Z,100199.97
2023-03-14T22:56:51.981Z,100189.41
2023-03-14T23:01:51.905Z,100192.38
2023-03-14T23:06:48.797Z,100196.97
2023-03-14T23:11:51.488Z,100191.13
2023-03-14T23:16:48.379Z,100209.28
2023-03-14T23:21:45.737Z,100198.50
2023-03-14T23:26:45.645Z,100193.19
2023-03-14T23:31:43.637Z,100194.53
2023-03-14T23:36:40.695Z,100185.56
2023-03-14T23:41:37.548Z,100166.44
2023-03-14T23:46:34.626Z,100165.50
2023-03-14T23:51:32.088Z,100145.59
2023-03-14T23:56:30.710Z,100158.41
